Keyapaha, South Dakota
Current Conditions -  °F | °C
As of 4:53 AM on Thursday 18 Dec 2014 (Local Time) from KICR Reporting Station
Overcast Overcast  
Wind Chill: 14°   Ceiling: 1000
Heat Index: 24°   Visibility: NA
Dew Point: 20°   Wind: 9mph
Humidity: 84%   Direction: 140°SE
Pressure: 30.1"   Gusts: NA
Location:  43.2923°N, 99.8934°W
Report Text: KICR 181053Z AUTO 14008KT OVC010 M04/M07 A3010 RMK AO2 SLPNO T10441067 $
Loading
Personal Weather Stations






























Interactive Weather Map New forecast layout! Learn more

10-Day Weather Forecast

Advertisements
Track Severe Weather on mobile